Impacts TAF Board
For situational awareness. Not to be used for flight planning purposes.
IDs:

KMIA - Miami Intl, FL, US

Issued at 1120 UTC 14 Dec 2019
Updated at 1343 UTC 14 Dec 2019
Potential Impact None Slight Moderate High
Time1253Z 14/14Z 14/15Z 14/16Z 14/17Z 14/18Z 14/19Z 14/20Z 14/21Z 14/22Z 14/23Z 15/00Z 15/01Z 15/02Z>>
Type OBS PRVL PRVL PRVL PRVL PRVL
  [TEMP]  
PRVL
  [TEMP]  
PRVL
  [TEMP]  
PRVL PRVL PRVL PRVL PRVL PRVL
VIS 10 >6 >6 >6 >6 >6
  [3]  
>6
  [3]  
>6
  [3]  
>6 >6 >6 >6 >6 >6
CIG -- 60 60 60 60 60
  [20]  
60
  [20]  
60
  [20]  
-- -- -- -- -- --
Cover FEW BKN BKN BKN BKN BKN
  [OVC]  
BKN
  [OVC]  
BKN
  [OVC]  
SCT SCT SCT SCT SCT SCT
FltCat VFR VFR VFR VFR VFR VFR
  [MVFR]  
VFR
  [MVFR]  
VFR
  [MVFR]  
VFR VFR VFR VFR VFR VFR
WX -- VCSH VCSH VCSH VCSH VCSH
  [SHRA]  
VCSH
  [SHRA]  
VCSH
  [SHRA]  
VCSH VCSH VCSH VCSH -- --
WDir 220 240 240 240 240 240
[240]
240
[240]
240
[240]
280 280 280 280 330 330
WSpd 7 12 12 12 12 12
  [12]  
12
  [12]  
12
  [12]  
12 12 12 12 7 7
WGst -- 22 22 22 22 22
  [22]  
22
  [22]  
22
  [22]  
22 22 22 22 -- --
Raw TAF
KMIA 141120Z 1412/1518 20007KT P6SM FEW030 SCT150 BKN250
  FM141400 24012G22KT P6SM VCSH SCT030 BKN060
  TEMPO 1418/1421 3SM SHRA BKN020 OVC040
  FM142100 28012G22KT P6SM VCSH SCT030 SCT250
  FM150100 33007KT P6SM FEW050 SCT250
  FM151300 06008KT P6SM FEW040 FEW250


Raw METAR
KMIA 141253Z 22007KT 10SM FEW024 FEW250 23/19 A2987 RMK AO2 SLP116 T02280194 $
KMIA 141153Z 19006KT 10SM FEW150 BKN230 21/19 A2986 RMK AO2 SLP111 T02110189 10239 20211 55002 $
KMIA 141053Z 15004KT 10SM FEW150 BKN230 21/18 A2985 RMK AO2 SLP108 T02110183 $

METAR Board
Radar Display
Forecast Discussion
For situational awareness. Not to be used for flight planning purposes.